Time;durP1;ratioP1;P1;durP2;ratioP2;P2;SDS_P1;SDS_P2;PMS_P1;PMS_P2;Temp;Humidity;BMP_temperature;BMP_pressure;BME280_temperature;BME280_humidity;BME280_pressure;Samples;Min_cycle;Max_cycle;Signal;HPM_P1;HPM_P2
2022/10/05 00:01:21;;;;;;;;;;;17.10;86.30;;;;;;5055076;28;20424;-91
2022/10/05 00:03:47;;;;;;;;;;;17.10;86.30;;;;;;5055280;28;19951;-92
2022/10/05 00:06:13;;;;;;;;;;;17.10;86.60;;;;;;5055106;28;20039;-91
2022/10/05 00:08:38;;;;;;;;;;;17.10;86.70;;;;;;5054957;28;20012;-92
2022/10/05 00:11:07;;;;;;;;;;;17.10;86.40;;;;;;5054472;28;19943;-91
2022/10/05 00:13:32;;;;;;;;;;;17.10;86.00;;;;;;5055359;28;20405;-92
2022/10/05 00:16:03;;;;;;;;;;;17.10;86.10;;;;;;5037483;28;19945;-91
2022/10/05 00:18:29;;;;;;;;;;;17.00;86.20;;;;;;5054558;28;19962;-91
2022/10/05 00:20:55;;;;;;;;;;;17.10;86.40;;;;;;5055226;28;19939;-93
2022/10/05 00:23:23;;;;;;;;;;;17.00;86.80;;;;;;5055172;28;20031;-92
2022/10/05 00:25:49;;;;;;;;;;;16.90;86.70;;;;;;5055193;28;19967;-91
2022/10/05 00:28:28;;;;;;;;;;;16.90;86.40;;;;;;5054352;28;19966;-92
2022/10/05 00:30:56;;;;;;;;;;;16.80;86.40;;;;;;5052853;28;20034;-92
2022/10/05 00:33:22;;;;;;;;;;;16.80;86.30;;;;;;5053841;28;19952;-91
2022/10/05 00:35:48;;;;;;;;;;;16.80;86.20;;;;;;5036942;28;19943;-91
2022/10/05 00:38:13;;;;;;;;;;;16.90;86.40;;;;;;5054658;28;20358;-91
2022/10/05 00:40:41;;;;;;;;;;;16.90;86.60;;;;;;5054294;28;19960;-92
2022/10/05 00:43:19;;;;;;;;;;;16.90;86.80;;;;;;5054837;28;19937;-91
2022/10/05 00:45:47;;;;;;;;;;;16.90;86.90;;;;;;5054704;28;20414;-93
2022/10/05 00:48:25;;;;;;;;;;;17.00;86.90;;;;;;5054193;28;19967;-93
2022/10/05 00:50:53;;;;;;;;;;;16.90;86.90;;;;;;5054433;28;20044;-92
2022/10/05 00:53:34;;;;;;;;;;;16.80;86.90;;;;;;5036673;28;20006;-92
2022/10/05 00:56:11;;;;;;;;;;;16.80;87.10;;;;;;5054423;28;19951;-91
2022/10/05 00:58:52;;;;;;;;;;;16.80;87.30;;;;;;5053935;28;19952;-92
2022/10/05 01:01:42;;;;;;;;;;;16.70;87.60;;;;;;5054712;28;20047;-91
2022/10/05 01:04:14;;;;;;;;;;;16.80;87.80;;;;;;5051873;28;19947;-91
2022/10/05 01:06:47;;;;;;;;;;;16.80;87.70;;;;;;5054042;28;20032;-92
2022/10/05 01:09:32;;;;;;;;;;;16.80;87.70;;;;;;5054028;28;19940;-91
2022/10/05 01:12:03;;;;;;;;;;;16.80;87.40;;;;;;5054172;28;19944;-92
2022/10/05 01:14:47;;;;;;;;;;;16.70;88.00;;;;;;5053557;28;20403;-91
2022/10/05 01:17:19;;;;;;;;;;;16.60;88.40;;;;;;5053685;28;19939;-91
2022/10/05 01:19:47;;;;;;;;;;;16.60;88.60;;;;;;5053764;28;19947;-92
2022/10/05 01:22:31;;;;;;;;;;;16.60;88.70;;;;;;5053319;28;20409;-92
2022/10/05 01:24:57;;;;;;;;;;;16.50;88.50;;;;;;5053241;28;19953;-91
2022/10/05 01:27:37;;;;;;;;;;;16.50;88.30;;;;;;5053828;28;19987;-92
2022/10/05 01:30:02;;;;;;;;;;;16.40;88.40;;;;;;5053851;28;19951;-91
2022/10/05 01:32:35;;;;;;;;;;;16.40;88.70;;;;;;5053313;28;19945;-92
2022/10/05 01:35:10;;;;;;;;;;;16.40;88.80;;;;;;5052418;28;19947;-92
2022/10/05 01:37:44;;;;;;;;;;;16.40;88.80;;;;;;5053734;28;19941;-92
2022/10/05 01:40:10;;;;;;;;;;;16.40;88.80;;;;;;5053451;28;19953;-92
2022/10/05 01:42:55;;;;;;;;;;;16.40;89.10;;;;;;5053125;28;19941;-91
2022/10/05 01:45:27;;;;;;;;;;;16.40;89.00;;;;;;5053094;28;20001;-92
2022/10/05 01:48:00;;;;;;;;;;;16.40;88.90;;;;;;5052867;28;20391;-92
2022/10/05 01:50:25;;;;;;;;;;;16.40;89.00;;;;;;5053397;28;20350;-92
2022/10/05 01:52:51;;;;;;;;;;;16.30;89.20;;;;;;5052799;28;19971;-91
2022/10/05 01:55:16;;;;;;;;;;;16.20;89.30;;;;;;5053440;28;20002;-92
2022/10/05 01:57:42;;;;;;;;;;;16.10;89.40;;;;;;5053404;28;20031;-92
2022/10/05 02:00:09;;;;;;;;;;;16.00;89.60;;;;;;5052987;28;20325;-93
2022/10/05 02:02:36;;;;;;;;;;;16.00;89.70;;;;;;5052873;28;19958;-92
2022/10/05 02:05:02;;;;;;;;;;;15.90;90.40;;;;;;5052270;28;20446;-92
2022/10/05 02:07:31;;;;;;;;;;;15.90;90.60;;;;;;5053195;28;19960;-92
2022/10/05 02:09:59;;;;;;;;;;;15.80;90.60;;;;;;5053079;28;19989;-92
2022/10/05 02:12:27;;;;;;;;;;;15.80;90.40;;;;;;5053456;28;20024;-90
2022/10/05 02:14:55;;;;;;;;;;;15.70;90.40;;;;;;5052562;28;19959;-91
2022/10/05 02:17:24;;;;;;;;;;;15.70;90.30;;;;;;5053144;28;20459;-91
2022/10/05 02:19:51;;;;;;;;;;;15.60;90.50;;;;;;5052499;28;19947;-92
2022/10/05 02:22:37;;;;;;;;;;;15.50;90.70;;;;;;5053056;28;20399;-91
2022/10/05 02:25:08;;;;;;;;;;;15.60;90.90;;;;;;5033023;28;20039;-93
2022/10/05 02:27:36;;;;;;;;;;;15.60;91.00;;;;;;5052933;28;20319;-91
2022/10/05 02:30:04;;;;;;;;;;;15.60;91.10;;;;;;5052729;28;20080;-91
2022/10/05 02:32:35;;;;;;;;;;;15.60;91.00;;;;;;5052995;28;20010;-91
2022/10/05 02:35:03;;;;;;;;;;;15.70;90.90;;;;;;5052783;28;20060;-92
2022/10/05 02:37:28;;;;;;;;;;;15.70;90.90;;;;;;5057359;28;19946;-91
2022/10/05 02:40:03;;;;;;;;;;;15.80;90.80;;;;;;5057077;28;19941;-92
2022/10/05 02:42:29;;;;;;;;;;;15.80;90.70;;;;;;5057033;28;20120;-92
2022/10/05 02:45:02;;;;;;;;;;;15.80;90.70;;;;;;5056275;28;19952;-92
2022/10/05 02:47:28;;;;;;;;;;;15.80;90.80;;;;;;5056904;28;20058;-91
2022/10/05 02:50:14;;;;;;;;;;;15.80;90.60;;;;;;5056095;28;19946;-91
2022/10/05 02:52:46;;;;;;;;;;;15.80;90.40;;;;;;5025436;28;19962;-92
2022/10/05 02:55:22;;;;;;;;;;;15.80;90.40;;;;;;5036876;28;19973;-92
2022/10/05 02:57:58;;;;;;;;;;;15.80;90.40;;;;;;5037135;28;19950;-92
2022/10/05 03:00:24;;;;;;;;;;;15.90;90.30;;;;;;5055772;28;20435;-92
2022/10/05 03:02:53;;;;;;;;;;;15.80;90.20;;;;;;5055812;28;19941;-92
2022/10/05 03:05:26;;;;;;;;;;;15.90;90.30;;;;;;5050292;28;20012;-92
2022/10/05 03:07:56;;;;;;;;;;;15.90;90.30;;;;;;5056556;28;19968;-92
2022/10/05 03:10:21;;;;;;;;;;;15.90;90.30;;;;;;5056594;28;19935;-91
2022/10/05 03:13:02;;;;;;;;;;;16.00;90.30;;;;;;5055972;28;20030;-92
2022/10/05 03:15:47;;;;;;;;;;;16.00;90.20;;;;;;5036616;28;19939;-91
2022/10/05 03:18:21;;;;;;;;;;;16.00;90.10;;;;;;5037460;28;19933;-91
2022/10/05 03:20:52;;;;;;;;;;;15.90;89.90;;;;;;5056431;28;19937;-91
2022/10/05 03:23:34;;;;;;;;;;;15.90;90.10;;;;;;5055709;28;20402;-92
2022/10/05 03:26:23;;;;;;;;;;;15.90;90.10;;;;;;5056213;28;20034;-92
2022/10/05 03:28:51;;;;;;;;;;;15.90;90.10;;;;;;5055706;28;19952;-93
2022/10/05 03:31:21;;;;;;;;;;;16.00;90.10;;;;;;5056223;28;20063;-93
2022/10/05 03:33:52;;;;;;;;;;;16.00;89.90;;;;;;5055470;28;19949;-92
2022/10/05 03:36:24;;;;;;;;;;;16.00;89.80;;;;;;5056067;28;20358;-91
2022/10/05 03:38:49;;;;;;;;;;;16.00;89.70;;;;;;5056068;28;19945;-91
2022/10/05 03:41:24;;;;;;;;;;;16.00;89.70;;;;;;5055993;28;19949;-92
2022/10/05 03:44:01;;;;;;;;;;;16.00;90.00;;;;;;5055192;28;19979;-92
2022/10/05 03:46:34;;;;;;;;;;;16.00;90.10;;;;;;5054654;28;20037;-91
2022/10/05 03:49:02;;;;;;;;;;;16.00;89.90;;;;;;5054712;28;19971;-92
2022/10/05 03:51:33;;;;;;;;;;;16.00;89.90;;;;;;5055057;28;19965;-92
2022/10/05 03:54:14;;;;;;;;;;;15.90;89.90;;;;;;5055700;28;19948;-92
2022/10/05 03:56:42;;;;;;;;;;;15.90;90.00;;;;;;5055647;28;19947;-91
2022/10/05 03:59:13;;;;;;;;;;;15.90;90.00;;;;;;5055381;28;20047;-92
2022/10/05 04:01:44;;;;;;;;;;;15.90;90.10;;;;;;5054804;28;20220;-91
2022/10/05 04:04:17;;;;;;;;;;;15.90;90.20;;;;;;5054829;28;19965;-91
2022/10/05 04:06:46;;;;;;;;;;;15.90;90.40;;;;;;5055151;28;19966;-92
2022/10/05 04:09:30;;;;;;;;;;;15.90;90.70;;;;;;5055070;28;19942;-91
2022/10/05 04:12:02;;;;;;;;;;;16.00;90.80;;;;;;5053790;28;19940;-91
2022/10/05 04:14:31;;;;;;;;;;;16.00;90.80;;;;;;5055127;28;20012;-92
2022/10/05 04:16:56;;;;;;;;;;;16.00;90.80;;;;;;5055339;28;19944;-92
2022/10/05 04:19:22;;;;;;;;;;;16.00;90.80;;;;;;5054696;28;20405;-93
2022/10/05 04:22:14;;;;;;;;;;;16.00;90.90;;;;;;5055411;28;20424;-92
2022/10/05 04:24:54;;;;;;;;;;;16.00;90.90;;;;;;5032073;28;19997;-92
2022/10/05 04:27:22;;;;;;;;;;;16.00;90.80;;;;;;5055309;28;20025;-92
2022/10/05 04:29:47;;;;;;;;;;;16.00;90.60;;;;;;5053848;28;19943;-92
2022/10/05 04:32:22;;;;;;;;;;;16.00;90.60;;;;;;5055057;28;20039;-92
2022/10/05 04:34:59;;;;;;;;;;;16.00;90.60;;;;;;5054580;28;19986;-92
2022/10/05 04:37:25;;;;;;;;;;;15.90;90.70;;;;;;5054913;28;19943;-91
2022/10/05 04:39:53;;;;;;;;;;;15.90;90.90;;;;;;5036494;28;20441;-92
2022/10/05 04:42:32;;;;;;;;;;;15.80;91.10;;;;;;5055122;28;19948;-92
2022/10/05 04:45:00;;;;;;;;;;;15.80;91.20;;;;;;5054835;28;19940;-92
2022/10/05 04:47:35;;;;;;;;;;;15.80;91.20;;;;;;5054693;28;19958;-92
2022/10/05 04:50:11;;;;;;;;;;;15.90;91.20;;;;;;5054297;28;20000;-92
2022/10/05 04:52:42;;;;;;;;;;;15.90;91.10;;;;;;5053272;28;19967;-92
2022/10/05 04:55:26;;;;;;;;;;;15.90;91.10;;;;;;5054577;28;19939;-93
2022/10/05 04:58:07;;;;;;;;;;;15.90;91.10;;;;;;5052142;28;19954;-93
2022/10/05 05:00:39;;;;;;;;;;;15.90;91.10;;;;;;5052505;28;19945;-92
2022/10/05 05:03:19;;;;;;;;;;;16.00;91.10;;;;;;5054155;28;20352;-92
2022/10/05 05:05:50;;;;;;;;;;;15.90;91.10;;;;;;5052746;28;20032;-92
2022/10/05 05:08:25;;;;;;;;;;;15.90;91.00;;;;;;5036357;28;19984;-92
2022/10/05 05:10:51;;;;;;;;;;;16.00;91.10;;;;;;5054117;28;19943;-92
2022/10/05 05:13:25;;;;;;;;;;;16.00;91.10;;;;;;5052754;28;19955;-92
2022/10/05 05:15:54;;;;;;;;;;;16.10;91.10;;;;;;5053415;28;20351;-91
2022/10/05 05:18:19;;;;;;;;;;;16.10;90.90;;;;;;5054161;28;19945;-92
2022/10/05 05:21:01;;;;;;;;;;;16.10;90.80;;;;;;5053285;28;19954;-92
2022/10/05 05:23:33;;;;;;;;;;;16.10;90.70;;;;;;5053403;28;19941;-93
2022/10/05 05:26:02;;;;;;;;;;;16.10;90.80;;;;;;5053385;28;19990;-91
2022/10/05 05:28:36;;;;;;;;;;;16.20;90.80;;;;;;5053905;28;19963;-93
2022/10/05 05:31:07;;;;;;;;;;;16.20;90.80;;;;;;5053554;28;19977;-92
2022/10/05 05:33:39;;;;;;;;;;;16.20;90.80;;;;;;5053046;28;20385;-92
2022/10/05 05:36:26;;;;;;;;;;;16.20;90.70;;;;;;5052221;28;20061;-92
2022/10/05 05:38:54;;;;;;;;;;;16.30;90.50;;;;;;5052930;28;19946;-92
2022/10/05 05:41:33;;;;;;;;;;;16.30;90.40;;;;;;5053729;28;20387;-91
2022/10/05 05:44:16;;;;;;;;;;;16.40;90.40;;;;;;5050201;28;19996;-91
2022/10/05 05:46:52;;;;;;;;;;;16.40;90.30;;;;;;5052629;28;20441;-91
2022/10/05 05:49:26;;;;;;;;;;;16.50;90.10;;;;;;5051468;28;19953;-92
2022/10/05 05:51:58;;;;;;;;;;;16.50;89.80;;;;;;5052875;28;19999;-91
2022/10/05 05:54:24;;;;;;;;;;;16.50;89.60;;;;;;5052694;28;20015;-92
2022/10/05 05:57:12;;;;;;;;;;;16.50;89.80;;;;;;5052944;28;20402;-92
2022/10/05 05:59:59;;;;;;;;;;;16.50;89.80;;;;;;5050715;28;19969;-91
2022/10/05 06:02:32;;;;;;;;;;;16.60;89.60;;;;;;5055277;28;19972;-91
2022/10/05 06:05:01;;;;;;;;;;;16.60;89.40;;;;;;5062818;22;20008;-91
2022/10/05 06:07:29;;;;;;;;;;;16.50;89.30;;;;;;5068761;28;20009;-92
2022/10/05 06:10:13;;;;;;;;;;;16.50;89.50;;;;;;5063284;28;19996;-92
2022/10/05 06:12:44;;;;;;;;;;;16.50;89.50;;;;;;5062033;28;19986;-91
2022/10/05 06:15:27;;;;;;;;;;;16.50;89.70;;;;;;5057625;28;20657;-92
2022/10/05 06:17:54;;;;;;;;;;;16.40;89.90;;;;;;5062576;28;20315;-93
2022/10/05 06:20:39;;;;;;;;;;;16.40;90.20;;;;;;5064823;28;20293;-92
2022/10/05 06:23:11;;;;;;;;;;;16.50;90.50;;;;;;5054275;28;19941;-91
2022/10/05 06:25:43;;;;;;;;;;;16.40;90.60;;;;;;5053077;28;20031;-91
2022/10/05 06:28:10;;;;;;;;;;;16.40;90.50;;;;;;5064459;28;19961;-91
2022/10/05 06:30:42;;;;;;;;;;;16.50;90.50;;;;;;5065864;28;20048;-91
2022/10/05 06:33:22;;;;;;;;;;;16.40;90.40;;;;;;5058311;28;19950;-92
2022/10/05 06:35:54;;;;;;;;;;;16.50;90.40;;;;;;5064251;28;19960;-92
2022/10/05 06:38:19;;;;;;;;;;;16.40;90.50;;;;;;5062690;28;20443;-91
2022/10/05 06:40:56;;;;;;;;;;;16.50;90.50;;;;;;5067378;28;19950;-91
2022/10/05 06:43:32;;;;;;;;;;;16.60;90.60;;;;;;5057153;28;19947;-92
2022/10/05 06:46:16;;;;;;;;;;;16.60;90.70;;;;;;5057870;28;19941;-92
2022/10/05 06:49:00;;;;;;;;;;;16.60;90.70;;;;;;5064049;28;19945;-92
2022/10/05 06:51:30;;;;;;;;;;;16.70;90.70;;;;;;5065371;28;19964;-91
2022/10/05 06:54:14;;;;;;;;;;;16.80;90.60;;;;;;5068608;28;19941;-92
2022/10/05 06:56:43;;;;;;;;;;;16.80;90.20;;;;;;5068470;28;20429;-91
2022/10/05 06:59:15;;;;;;;;;;;16.90;89.50;;;;;;5069275;28;19941;-91
2022/10/05 07:01:44;;;;;;;;;;;17.00;89.20;;;;;;5072318;28;20310;-92
2022/10/05 07:04:28;;;;;;;;;;;17.10;88.60;;;;;;5086023;28;20275;-91
2022/10/05 07:06:59;;;;;;;;;;;17.20;88.20;;;;;;5065630;28;19973;-93
2022/10/05 07:09:31;;;;;;;;;;;17.20;87.80;;;;;;5071565;28;19943;-92
2022/10/05 07:12:15;;;;;;;;;;;17.20;87.90;;;;;;5073409;28;20359;-92
2022/10/05 07:14:58;;;;;;;;;;;17.30;87.90;;;;;;5061999;28;19947;-92
2022/10/05 07:17:24;;;;;;;;;;;17.30;87.60;;;;;;5070706;28;19941;-91
2022/10/05 07:19:51;;;;;;;;;;;17.40;87.60;;;;;;5070210;28;19945;-92
2022/10/05 07:22:16;;;;;;;;;;;17.50;87.50;;;;;;5080751;28;19949;-92
2022/10/05 07:24:57;;;;;;;;;;;17.60;87.30;;;;;;5075761;28;19939;-92
2022/10/05 07:27:23;;;;;;;;;;;17.60;87.00;;;;;;5073104;28;19985;-92
2022/10/05 07:30:01;;;;;;;;;;;17.60;86.80;;;;;;5074801;28;19940;-92
2022/10/05 07:32:27;;;;;;;;;;;17.60;86.80;;;;;;5069379;28;19956;-91
2022/10/05 07:34:58;;;;;;;;;;;17.60;86.70;;;;;;5070371;28;19947;-92
2022/10/05 07:40:24;;;;;;;;;;;17.50;86.90;;;;;;5074168;28;19951;-91
2022/10/05 07:42:59;;;;;;;;;;;17.50;86.90;;;;;;5085733;28;20002;-92
2022/10/05 07:45:43;;;;;;;;;;;17.50;86.90;;;;;;5067571;28;19944;-92
2022/10/05 07:48:32;;;;;;;;;;;17.50;87.00;;;;;;5070880;28;20513;-92
2022/10/05 07:50:58;;;;;;;;;;;17.60;87.30;;;;;;5065039;28;19970;-92
2022/10/05 07:53:27;;;;;;;;;;;17.60;87.40;;;;;;5073454;28;19948;-92
2022/10/05 07:55:54;;;;;;;;;;;17.60;87.60;;;;;;5072152;28;20029;-90
2022/10/05 07:58:23;;;;;;;;;;;17.60;87.60;;;;;;5073571;28;19981;-90
2022/10/05 08:01:01;;;;;;;;;;;17.70;87.30;;;;;;5070481;28;19942;-91
2022/10/05 08:03:33;;;;;;;;;;;17.70;87.20;;;;;;5072168;28;19955;-89
2022/10/05 08:05:59;;;;;;;;;;;17.70;86.50;;;;;;5071782;28;20012;-89
2022/10/05 08:08:31;;;;;;;;;;;17.70;86.80;;;;;;5073312;28;20543;-90
2022/10/05 08:11:19;;;;;;;;;;;17.80;86.90;;;;;;5069178;28;20334;-89
2022/10/05 08:13:59;;;;;;;;;;;17.80;86.70;;;;;;5065903;28;19954;-90
2022/10/05 08:16:27;;;;;;;;;;;17.80;86.70;;;;;;5070467;28;19947;-89
2022/10/05 08:18:58;;;;;;;;;;;17.90;86.30;;;;;;5073512;28;19948;-90
2022/10/05 08:21:32;;;;;;;;;;;18.00;86.00;;;;;;5075691;28;19966;-89
2022/10/05 08:23:58;;;;;;;;;;;18.10;85.50;;;;;;5076843;28;19953;-89
2022/10/05 08:26:37;;;;;;;;;;;18.10;85.60;;;;;;5073036;28;20320;-90
2022/10/05 08:29:12;;;;;;;;;;;18.30;84.70;;;;;;5072792;28;19945;-89
2022/10/05 08:31:39;;;;;;;;;;;18.30;84.70;;;;;;5070877;28;20298;-90
2022/10/05 08:34:06;;;;;;;;;;;18.40;84.30;;;;;;5075444;28;19948;-90
2022/10/05 08:36:38;;;;;;;;;;;18.50;84.20;;;;;;5073314;28;20378;-90
2022/10/05 08:39:08;;;;;;;;;;;18.50;83.50;;;;;;5074046;28;20027;-90
2022/10/05 08:41:52;;;;;;;;;;;18.60;83.20;;;;;;5070834;28;19955;-91
2022/10/05 08:44:17;;;;;;;;;;;18.80;82.70;;;;;;5069984;28;19948;-90
2022/10/05 08:46:49;;;;;;;;;;;18.80;82.20;;;;;;5072856;28;20082;-90
2022/10/05 08:49:39;;;;;;;;;;;18.80;82.10;;;;;;5072564;28;20367;-90
2022/10/05 08:52:16;;;;;;;;;;;18.90;81.60;;;;;;5072295;28;19960;-90
2022/10/05 08:54:42;;;;;;;;;;;18.90;81.20;;;;;;5077071;28;19990;-90
2022/10/05 08:57:46;;;;;;;;;;;19.00;80.00;;;;;;5080012;28;19998;-89
2022/10/05 09:00:22;;;;;;;;;;;19.10;78.90;;;;;;5009951;28;19945;-89
2022/10/05 09:03:06;;;;;;;;;;;19.30;78.30;;;;;;5010853;28;20503;-89
2022/10/05 09:05:50;;;;;;;;;;;19.40;78.30;;;;;;5052262;28;20336;-91
2022/10/05 09:08:16;;;;;;;;;;;19.60;77.00;;;;;;5069664;28;19988;-90
2022/10/05 09:10:47;;;;;;;;;;;19.70;75.70;;;;;;5068971;28;20382;-91
2022/10/05 09:13:30;;;;;;;;;;;19.80;74.90;;;;;;5067151;28;20015;-90
2022/10/05 09:15:55;;;;;;;;;;;20.00;74.40;;;;;;5071993;28;19942;-90
2022/10/05 09:18:21;;;;;;;;;;;20.10;74.90;;;;;;5069113;28;20004;-92
2022/10/05 09:21:05;;;;;;;;;;;20.30;74.50;;;;;;5072214;28;20200;-91
2022/10/05 09:23:36;;;;;;;;;;;20.50;76.60;;;;;;5072070;28;19958;-91
2022/10/05 09:26:20;;;;;;;;;;;20.80;74.50;;;;;;5077151;28;19997;-90
2022/10/05 09:28:46;;;;;;;;;;;20.90;71.90;;;;;;5075554;28;20035;-91
2022/10/05 09:31:35;;;;;;;;;;;21.20;71.50;;;;;;5072446;28;20038;-90
2022/10/05 09:34:18;;;;;;;;;;;21.30;70.60;;;;;;5077858;28;19971;-90
2022/10/05 09:36:46;;;;;;;;;;;21.50;71.10;;;;;;5064344;28;19969;-91
2022/10/05 09:39:17;;;;;;;;;;;21.70;70.90;;;;;;5071579;28;19951;-90
2022/10/05 09:41:49;;;;;;;;;;;21.90;69.60;;;;;;5073810;28;19943;-90
2022/10/05 09:44:35;;;;;;;;;;;22.00;68.70;;;;;;5070807;28;20462;-90
2022/10/05 09:47:05;;;;;;;;;;;22.10;69.30;;;;;;5070561;28;19965;-90
2022/10/05 09:50:00;;;;;;;;;;;22.00;69.50;;;;;;5072062;28;19950;-91
2022/10/05 09:52:25;;;;;;;;;;;22.00;70.40;;;;;;5051834;28;19975;-90
2022/10/05 09:54:51;;;;;;;;;;;21.90;70.60;;;;;;5071749;28;19950;-91
2022/10/05 09:57:35;;;;;;;;;;;22.00;70.70;;;;;;5071851;28;19943;-90
2022/10/05 10:00:20;;;;;;;;;;;22.20;70.20;;;;;;5067009;28;19950;-90
2022/10/05 10:02:57;;;;;;;;;;;22.30;68.30;;;;;;5073070;28;19979;-90
2022/10/05 10:05:32;;;;;;;;;;;22.40;67.10;;;;;;5068205;28;19973;-90
2022/10/05 10:08:04;;;;;;;;;;;22.40;66.80;;;;;;5071545;28;19955;-90
2022/10/05 10:10:42;;;;;;;;;;;22.40;68.40;;;;;;5072682;28;20037;-90
2022/10/05 10:13:27;;;;;;;;;;;22.40;67.20;;;;;;5073191;28;19948;-90
2022/10/05 10:16:11;;;;;;;;;;;22.40;66.80;;;;;;5070717;28;19950;-90
2022/10/05 10:18:36;;;;;;;;;;;22.20;67.10;;;;;;5072261;28;19944;-90
2022/10/05 10:21:21;;;;;;;;;;;22.00;67.70;;;;;;5072220;28;19952;-90
2022/10/05 10:23:59;;;;;;;;;;;22.10;68.80;;;;;;5071810;28;19949;-90
2022/10/05 10:26:43;;;;;;;;;;;22.20;67.30;;;;;;5072996;28;19974;-90
2022/10/05 10:29:14;;;;;;;;;;;22.30;68.10;;;;;;5071727;28;19948;-90
2022/10/05 10:31:39;;;;;;;;;;;22.40;68.50;;;;;;5071764;28;20100;-90
2022/10/05 10:34:26;;;;;;;;;;;22.60;68.40;;;;;;5073018;28;20403;-90
2022/10/05 10:37:10;;;;;;;;;;;22.60;65.90;;;;;;5058346;28;19950;-90
2022/10/05 10:39:51;;;;;;;;;;;22.80;66.60;;;;;;5072396;28;19944;-91
2022/10/05 10:42:32;;;;;;;;;;;23.10;65.90;;;;;;5073022;28;19939;-90
2022/10/05 10:45:16;;;;;;;;;;;23.10;65.80;;;;;;5072099;28;19990;-90
2022/10/05 10:47:47;;;;;;;;;;;23.00;66.00;;;;;;5072376;28;20396;-91
2022/10/05 10:50:32;;;;;;;;;;;22.80;66.60;;;;;;5072859;28;19941;-90
2022/10/05 10:53:10;;;;;;;;;;;22.60;67.20;;;;;;5073093;28;19947;-90
2022/10/05 10:55:35;;;;;;;;;;;22.80;67.10;;;;;;5073024;28;19970;-90
2022/10/05 10:58:01;;;;;;;;;;;22.80;65.50;;;;;;5076623;28;20409;-90
2022/10/05 11:00:46;;;;;;;;;;;22.80;65.70;;;;;;5076073;28;19949;-90
2022/10/05 11:03:21;;;;;;;;;;;22.80;64.90;;;;;;5062461;28;19955;-90
2022/10/05 11:06:01;;;;;;;;;;;22.80;64.60;;;;;;5075673;28;20055;-90
2022/10/05 11:08:46;;;;;;;;;;;22.80;67.10;;;;;;5075917;28;19964;-90
2022/10/05 11:11:30;;;;;;;;;;;22.80;66.80;;;;;;5076552;28;19940;-90
2022/10/05 11:14:07;;;;;;;;;;;22.60;65.00;;;;;;5075936;28;19940;-90
2022/10/05 11:16:51;;;;;;;;;;;22.60;66.20;;;;;;5069441;28;20310;-89
2022/10/05 11:19:37;;;;;;;;;;;22.70;65.90;;;;;;5075594;28;19998;-90
2022/10/05 11:22:09;;;;;;;;;;;22.80;64.60;;;;;;5074875;28;19953;-90
2022/10/05 11:24:37;;;;;;;;;;;22.80;64.40;;;;;;5075652;28;19950;-90
2022/10/05 11:27:07;;;;;;;;;;;22.80;63.70;;;;;;5075468;28;20036;-90
2022/10/05 11:29:32;;;;;;;;;;;22.80;63.90;;;;;;5073616;28;19945;-91
2022/10/05 11:32:21;;;;;;;;;;;23.10;64.10;;;;;;5074084;28;19950;-91
2022/10/05 11:34:55;;;;;;;;;;;23.20;64.00;;;;;;5074918;28;19945;-91
2022/10/05 11:37:23;;;;;;;;;;;23.00;64.60;;;;;;5070516;28;19947;-90
2022/10/05 11:39:52;;;;;;;;;;;23.10;64.70;;;;;;5079884;28;20395;-90
2022/10/05 11:42:36;;;;;;;;;;;23.30;62.50;;;;;;5083697;28;19961;-90
2022/10/05 11:45:12;;;;;;;;;;;23.50;61.60;;;;;;5065374;28;20167;-91
2022/10/05 11:47:44;;;;;;;;;;;23.50;62.70;;;;;;5082608;28;19960;-91
2022/10/05 11:50:10;;;;;;;;;;;23.60;62.40;;;;;;5090491;28;20316;-91
2022/10/05 11:52:54;;;;;;;;;;;23.70;61.10;;;;;;5077287;28;19961;-90
2022/10/05 11:55:20;;;;;;;;;;;23.90;60.70;;;;;;5071436;28;19946;-90
2022/10/05 11:57:56;;;;;;;;;;;24.10;61.20;;;;;;5072881;28;19943;-90
2022/10/05 12:00:24;;;;;;;;;;;24.20;59.50;;;;;;5082689;28;19964;-90
2022/10/05 12:03:11;;;;;;;;;;;24.20;59.00;;;;;;5078555;28;19939;-90
2022/10/05 12:05:48;;;;;;;;;;;24.20;59.20;;;;;;5072828;28;20320;-90
2022/10/05 12:08:23;;;;;;;;;;;23.90;59.80;;;;;;5075420;28;20002;-90
2022/10/05 12:10:57;;;;;;;;;;;23.30;61.20;;;;;;5069938;28;19944;-90
2022/10/05 12:13:29;;;;;;;;;;;23.00;61.60;;;;;;5071273;28;19950;-91
2022/10/05 12:15:58;;;;;;;;;;;22.90;62.70;;;;;;5070889;28;19939;-90
2022/10/05 12:18:23;;;;;;;;;;;23.00;63.50;;;;;;5071219;28;19946;-90
2022/10/05 12:20:55;;;;;;;;;;;23.00;62.50;;;;;;5071668;28;19953;-90
2022/10/05 12:23:26;;;;;;;;;;;23.20;61.80;;;;;;5072853;28;19953;-90
2022/10/05 12:26:01;;;;;;;;;;;22.80;63.40;;;;;;5071026;28;19946;-90
2022/10/05 12:28:31;;;;;;;;;;;22.50;64.10;;;;;;5074104;28;19962;-91
2022/10/05 12:30:57;;;;;;;;;;;22.50;66.40;;;;;;5074386;28;19953;-90
2022/10/05 12:33:31;;;;;;;;;;;22.70;65.10;;;;;;5072766;28;19948;-91
2022/10/05 12:35:57;;;;;;;;;;;22.80;65.30;;;;;;5070518;28;19944;-91
2022/10/05 12:38:36;;;;;;;;;;;22.90;64.50;;;;;;5083061;28;20429;-91
2022/10/05 12:41:20;;;;;;;;;;;23.00;63.80;;;;;;5072874;28;19948;-91
2022/10/05 12:43:54;;;;;;;;;;;23.10;64.30;;;;;;5071598;28;19944;-90
2022/10/05 12:46:31;;;;;;;;;;;23.00;63.70;;;;;;5071278;28;19964;-90
2022/10/05 12:49:09;;;;;;;;;;;23.10;63.40;;;;;;5071056;28;19942;-90
2022/10/05 12:51:34;;;;;;;;;;;23.10;63.50;;;;;;5067714;28;19970;-90
2022/10/05 12:54:22;;;;;;;;;;;23.00;62.60;;;;;;5070829;28;19948;-90
2022/10/05 12:56:58;;;;;;;;;;;23.00;62.00;;;;;;5068504;28;20110;-90
2022/10/05 12:59:34;;;;;;;;;;;23.00;62.90;;;;;;5069439;28;19994;-90
2022/10/05 13:02:18;;;;;;;;;;;23.10;63.30;;;;;;5073425;28;20412;-91
2022/10/05 13:04:49;;;;;;;;;;;23.10;62.10;;;;;;5088495;28;19976;-90
2022/10/05 13:07:14;;;;;;;;;;;23.30;61.90;;;;;;5077823;28;20014;-90
2022/10/05 13:09:40;;;;;;;;;;;23.40;60.90;;;;;;5073747;28;19998;-90
2022/10/05 13:12:11;;;;;;;;;;;23.40;59.00;;;;;;5081210;28;20066;-90
2022/10/05 13:14:42;;;;;;;;;;;23.30;59.20;;;;;;5070987;28;20021;-90
2022/10/05 13:17:17;;;;;;;;;;;23.40;62.40;;;;;;5070088;28;19975;-90
2022/10/05 13:19:45;;;;;;;;;;;23.50;61.00;;;;;;5071735;28;19946;-91
2022/10/05 13:22:31;;;;;;;;;;;23.60;61.90;;;;;;5069926;28;20291;-91
2022/10/05 13:24:58;;;;;;;;;;;23.70;61.00;;;;;;5075146;28;19944;-90
2022/10/05 13:27:34;;;;;;;;;;;23.80;59.10;;;;;;5071296;28;19963;-90
2022/10/05 13:29:59;;;;;;;;;;;23.80;58.40;;;;;;5071293;28;20343;-91
2022/10/05 13:32:35;;;;;;;;;;;24.00;58.30;;;;;;5072955;28;20037;-90
2022/10/05 13:35:19;;;;;;;;;;;24.00;58.80;;;;;;5065949;28;19960;-91
2022/10/05 13:38:02;;;;;;;;;;;23.90;59.70;;;;;;5071282;28;19988;-91
2022/10/05 13:40:31;;;;;;;;;;;23.80;59.80;;;;;;5070938;28;19946;-91
2022/10/05 13:43:13;;;;;;;;;;;23.70;58.90;;;;;;5071740;28;20147;-91
2022/10/05 13:45:45;;;;;;;;;;;23.60;59.30;;;;;;5070275;28;19947;-91
2022/10/05 13:48:10;;;;;;;;;;;23.70;59.50;;;;;;5069494;28;20052;-91
2022/10/05 13:50:55;;;;;;;;;;;23.70;59.00;;;;;;5068977;28;20031;-91
2022/10/05 13:53:23;;;;;;;;;;;23.70;60.70;;;;;;5089808;28;20000;-90
2022/10/05 13:55:49;;;;;;;;;;;24.00;59.10;;;;;;5071765;28;19948;-91
2022/10/05 13:58:41;;;;;;;;;;;24.30;57.80;;;;;;5072104;28;20303;-91
2022/10/05 14:01:11;;;;;;;;;;;24.30;58.50;;;;;;5064101;28;19949;-91
2022/10/05 14:03:37;;;;;;;;;;;24.40;57.70;;;;;;5067601;28;19946;-91
2022/10/05 14:06:14;;;;;;;;;;;24.40;58.30;;;;;;5076166;22;19987;-90
2022/10/05 14:08:47;;;;;;;;;;;24.40;58.80;;;;;;5057974;28;19983;-90
2022/10/05 14:11:20;;;;;;;;;;;24.40;57.40;;;;;;5056408;28;20596;-90
2022/10/05 14:13:46;;;;;;;;;;;24.50;56.00;;;;;;5058998;28;19953;-91
2022/10/05 14:16:12;;;;;;;;;;;24.70;55.90;;;;;;5059036;28;20298;-91
2022/10/05 14:18:49;;;;;;;;;;;24.80;55.30;;;;;;5061034;28;19955;-91
2022/10/05 14:21:22;;;;;;;;;;;24.90;55.40;;;;;;5058208;28;19953;-91
2022/10/05 14:23:48;;;;;;;;;;;25.00;54.50;;;;;;5058474;28;19948;-90
2022/10/05 14:26:17;;;;;;;;;;;25.00;54.20;;;;;;5060656;28;19944;-90
2022/10/05 14:28:54;;;;;;;;;;;25.10;54.10;;;;;;5069630;28;19956;-91
2022/10/05 14:31:34;;;;;;;;;;;25.30;53.60;;;;;;5053137;28;19947;-91
2022/10/05 14:34:38;;;;;;;;;;;25.20;54.60;;;;;;5055093;28;20075;-91
2022/10/05 14:37:19;;;;;;;;;;;24.90;56.50;;;;;;4989853;28;19983;-92
2022/10/05 14:39:48;;;;;;;;;;;24.90;56.60;;;;;;4989635;28;19997;-90
2022/10/05 14:42:16;;;;;;;;;;;24.80;56.40;;;;;;5033351;28;19961;-90
2022/10/05 14:44:42;;;;;;;;;;;24.50;57.20;;;;;;5068637;28;19957;-91
2022/10/05 14:47:15;;;;;;;;;;;24.30;59.90;;;;;;5064642;28;19964;-91
2022/10/05 14:50:20;;;;;;;;;;;24.20;58.40;;;;;;5058918;28;19950;-91
2022/10/05 14:53:07;;;;;;;;;;;24.00;61.40;;;;;;5064412;28;19985;-91
2022/10/05 14:55:36;;;;;;;;;;;24.00;59.90;;;;;;5041122;28;19943;-91
2022/10/05 14:58:01;;;;;;;;;;;23.90;59.90;;;;;;5051022;28;19958;-90